Time;durP1;ratioP1;P1;durP2;ratioP2;P2;SDS_P1;SDS_P2;PMS_P1;PMS_P2;Temp;Humidity;BMP_temperature;BMP_pressure;BME280_temperature;BME280_humidity;BME280_pressure;Samples;Min_cycle;Max_cycle;Signal;HPM_P1;HPM_P2
2023/05/05 00:01:52;;;;;;;6.25;4.00;;;13.70;94.10;;;;;;4973494;28;95379;-76
2023/05/05 00:04:21;;;;;;;6.93;3.67;;;13.60;94.20;;;;;;4975858;28;92429;-76
2023/05/05 00:06:49;;;;;;;6.60;3.75;;;13.60;94.10;;;;;;4973990;28;94329;-76
2023/05/05 00:09:16;;;;;;;7.40;4.20;;;13.60;94.20;;;;;;4974188;28;94262;-76
2023/05/05 00:11:43;;;;;;;6.20;3.83;;;13.60;94.30;;;;;;4958127;28;92449;-76
2023/05/05 00:14:10;;;;;;;6.80;4.30;;;13.60;94.60;;;;;;4978054;28;92438;-76
2023/05/05 00:16:37;;;;;;;6.05;3.72;;;13.60;94.50;;;;;;4991207;28;93298;-76
2023/05/05 00:19:05;;;;;;;7.05;3.88;;;13.60;94.40;;;;;;4983927;28;103761;-76
2023/05/05 00:21:32;;;;;;;5.90;3.63;;;13.60;94.40;;;;;;5000777;28;92652;-76
2023/05/05 00:23:59;;;;;;;4.32;3.92;;;13.60;94.40;;;;;;5001956;28;92859;-76
2023/05/05 00:26:26;;;;;;;7.93;3.80;;;13.60;94.50;;;;;;4999333;28;95718;-76
2023/05/05 00:28:54;;;;;;;6.43;4.10;;;13.60;94.40;;;;;;4999941;28;97975;-76
2023/05/05 00:31:21;;;;;;;8.82;4.10;;;13.60;94.50;;;;;;5000542;28;92509;-76
2023/05/05 00:33:48;;;;;;;7.03;3.83;;;13.70;94.30;;;;;;5000267;28;92465;-76
2023/05/05 00:36:15;;;;;;;4.95;3.60;;;13.70;94.40;;;;;;5001685;28;93243;-76
2023/05/05 00:38:42;;;;;;;5.60;4.13;;;13.70;94.30;;;;;;5001618;28;93064;-76
2023/05/05 00:41:09;;;;;;;4.78;4.13;;;13.70;94.30;;;;;;5000185;28;92437;-76
2023/05/05 00:43:36;;;;;;;5.07;3.50;;;13.70;94.40;;;;;;4984344;28;91732;-76
2023/05/05 00:46:27;;;;;;;6.68;4.10;;;13.70;94.50;;;;;;4999875;28;95928;-76
2023/05/05 00:48:55;;;;;;;6.00;3.58;;;13.70;94.30;;;;;;4983416;28;95569;-76
2023/05/05 00:51:23;;;;;;;4.60;4.05;;;13.70;94.40;;;;;;4999531;28;94825;-76
2023/05/05 00:53:50;;;;;;;5.03;3.65;;;13.70;94.50;;;;;;4983619;28;92550;-76
2023/05/05 00:56:19;;;;;;;4.32;3.70;;;13.70;94.50;;;;;;5001648;28;92558;-76
2023/05/05 00:58:47;;;;;;;8.02;3.83;;;13.70;94.50;;;;;;5000226;28;92901;-76
2023/05/05 01:01:15;;;;;;;5.65;3.70;;;13.60;94.70;;;;;;4999934;28;92523;-76
2023/05/05 01:03:43;;;;;;;8.02;4.10;;;13.60;94.60;;;;;;4984006;28;92569;-76
2023/05/05 01:06:39;;;;;;;8.02;3.72;;;13.70;94.60;;;;;;5000994;28;92399;-76
2023/05/05 01:09:18;;;;;;;4.50;4.05;;;13.70;94.50;;;;;;4987172;28;95678;-76
2023/05/05 01:12:04;;;;;;;5.05;3.97;;;13.60;94.80;;;;;;4983646;28;92459;-76
2023/05/05 01:14:39;;;;;;;6.50;3.67;;;13.60;94.80;;;;;;4999625;28;92521;-76
2023/05/05 01:17:21;;;;;;;6.97;4.20;;;13.60;94.70;;;;;;4997705;28;95624;-76
2023/05/05 01:20:10;;;;;;;6.25;4.00;;;13.60;94.90;;;;;;5000111;28;95194;-76
2023/05/05 01:22:41;;;;;;;5.32;3.80;;;13.50;94.90;;;;;;5000085;28;92958;-76
2023/05/05 01:25:19;;;;;;;6.20;4.47;;;13.50;95.10;;;;;;4982294;28;92980;-76
2023/05/05 01:28:07;;;;;;;5.15;4.10;;;13.40;95.20;;;;;;4998112;28;93394;-76
2023/05/05 01:31:00;;;;;;;8.35;4.50;;;13.40;95.40;;;;;;4998138;28;92986;-76
2023/05/05 01:33:34;;;;;;;6.20;4.13;;;13.40;95.20;;;;;;4996454;28;92497;-76
2023/05/05 01:36:10;;;;;;;5.22;3.72;;;13.30;95.50;;;;;;4996640;28;92443;-76
2023/05/05 01:38:41;;;;;;;4.13;3.65;;;13.30;95.50;;;;;;4995290;28;93433;-76
2023/05/05 01:41:16;;;;;;;4.63;4.18;;;13.30;95.60;;;;;;4997743;28;92861;-76
2023/05/05 01:43:47;;;;;;;6.28;3.97;;;13.30;95.50;;;;;;4995029;28;94950;-76
2023/05/05 01:46:15;;;;;;;4.50;3.85;;;13.30;95.70;;;;;;4997674;28;92517;-76
2023/05/05 01:48:43;;;;;;;4.68;3.95;;;13.30;95.60;;;;;;4997421;28;93221;-76
2023/05/05 01:51:11;;;;;;;8.27;4.47;;;13.30;95.80;;;;;;4995871;28;95566;-76
2023/05/05 01:53:40;;;;;;;4.05;3.65;;;13.30;95.70;;;;;;4997549;28;92435;-76
2023/05/05 01:56:09;;;;;;;7.15;4.85;;;13.30;95.90;;;;;;4995917;28;92980;-76
2023/05/05 01:58:37;;;;;;;5.50;4.05;;;13.30;95.90;;;;;;4995846;28;96303;-76
2023/05/05 02:01:04;;;;;;;6.10;4.45;;;13.20;95.90;;;;;;4996141;28;95583;-76
2023/05/05 02:03:32;;;;;;;9.48;4.68;;;13.20;96.10;;;;;;4997494;28;92376;-76
2023/05/05 02:06:01;;;;;;;4.95;3.78;;;13.20;96.00;;;;;;4995761;28;92746;-76
2023/05/05 02:08:30;;;;;;;6.97;4.40;;;13.20;96.20;;;;;;4994498;28;97948;-76
2023/05/05 02:10:58;;;;;;;5.95;4.43;;;13.20;96.20;;;;;;4995959;28;95363;-76
2023/05/05 02:13:28;;;;;;;7.20;4.82;;;13.20;96.20;;;;;;4995991;28;92772;-76
2023/05/05 02:15:56;;;;;;;5.32;4.00;;;13.20;96.00;;;;;;4995619;28;92433;-76
2023/05/05 02:18:24;;;;;;;5.63;3.65;;;13.30;96.10;;;;;;4979035;28;95843;-76
2023/05/05 02:20:52;;;;;;;6.38;4.13;;;13.30;96.10;;;;;;4995647;28;95586;-76
2023/05/05 02:23:19;;;;;;;5.13;4.18;;;13.30;96.10;;;;;;4996781;28;92460;-76
2023/05/05 02:25:49;;;;;;;8.85;4.30;;;13.30;96.20;;;;;;4979596;28;91668;-76
2023/05/05 02:28:35;;;;;;;6.18;4.15;;;13.30;96.20;;;;;;4996829;28;93394;-76
2023/05/05 02:31:04;;;;;;;4.60;3.70;;;13.30;96.20;;;;;;4995837;28;92921;-76
2023/05/05 02:33:33;;;;;;;9.52;3.90;;;13.30;96.30;;;;;;4977842;28;94894;-76
2023/05/05 02:36:18;;;;;;;5.60;4.05;;;13.30;96.30;;;;;;4995484;28;92596;-76
2023/05/05 02:39:00;;;;;;;4.90;3.90;;;13.30;96.30;;;;;;4994545;28;95460;-76
2023/05/05 02:41:33;;;;;;;7.35;4.03;;;13.20;96.50;;;;;;4995281;28;94073;-76
2023/05/05 02:44:07;;;;;;;6.22;3.90;;;13.20;96.50;;;;;;4995358;28;92610;-76
2023/05/05 02:46:37;;;;;;;7.22;4.38;;;13.20;96.60;;;;;;4995347;28;92480;-76
2023/05/05 02:49:04;;;;;;;7.80;4.28;;;13.20;96.60;;;;;;4978822;28;95415;-76
2023/05/05 02:51:32;;;;;;;7.13;4.40;;;13.30;96.70;;;;;;4979079;28;95880;-76
2023/05/05 02:54:03;;;;;;;5.93;4.20;;;13.20;96.60;;;;;;4979580;28;92477;-76
2023/05/05 02:56:50;;;;;;;6.47;4.20;;;13.20;96.70;;;;;;4978569;28;92575;-76
2023/05/05 02:59:35;;;;;;;7.15;4.68;;;13.30;96.60;;;;;;4977166;28;97610;-76
2023/05/05 03:02:26;;;;;;;4.50;4.00;;;13.20;96.80;;;;;;4994908;28;96896;-76
2023/05/05 03:05:05;;;;;;;6.57;4.68;;;13.20;96.80;;;;;;4995198;28;92501;-76
2023/05/05 03:07:40;;;;;;;;;;;13.10;97.10;;;;;;4995483;28;92575;-76
2023/05/05 03:10:12;;;;;;;5.38;4.45;;;12.90;97.20;;;;;;4997560;28;93347;-76
2023/05/05 03:13:10;;;;;;;6.53;4.70;;;12.90;97.30;;;;;;4994907;28;95460;-76
2023/05/05 03:15:47;;;;;;;7.43;4.20;;;13.00;97.20;;;;;;4993964;28;92448;-76
2023/05/05 03:18:19;;;;;;;5.97;4.25;;;13.00;97.40;;;;;;4995162;28;91691;-76
2023/05/05 03:20:53;;;;;;;6.55;4.28;;;13.00;97.30;;;;;;4994664;28;94947;-76
2023/05/05 03:23:21;;;;;;;7.68;4.38;;;13.00;97.30;;;;;;4994390;28;95550;-76
2023/05/05 03:25:53;;;;;;;10.68;4.90;;;13.00;97.40;;;;;;4993675;28;94878;-76
2023/05/05 03:28:37;;;;;;;5.50;5.03;;;13.00;97.40;;;;;;4966467;28;93051;-76
2023/05/05 03:31:15;;;;;;;5.25;4.68;;;13.00;97.50;;;;;;4979440;28;95470;-76
2023/05/05 03:33:42;;;;;;;7.38;4.70;;;12.90;97.70;;;;;;4978062;28;95983;-76
2023/05/05 03:36:09;;;;;;;6.40;4.85;;;12.90;97.70;;;;;;4994401;28;92486;-76
2023/05/05 03:38:37;;;;;;;4.85;4.35;;;12.90;97.90;;;;;;4978228;28;92484;-76
2023/05/05 03:41:04;;;;;;;7.72;5.15;;;12.80;97.90;;;;;;4977967;28;95519;-76
2023/05/05 03:43:32;;;;;;;5.75;4.78;;;12.80;98.00;;;;;;4994445;28;94828;-76
2023/05/05 03:45:58;;;;;;;7.40;5.03;;;12.70;98.10;;;;;;4978287;28;92444;-76
2023/05/05 03:48:26;;;;;;;7.47;4.88;;;12.70;98.20;;;;;;4993674;28;92433;-76
2023/05/05 03:50:53;;;;;;;6.35;4.50;;;12.60;98.20;;;;;;4976676;28;97929;-76
2023/05/05 03:53:22;;;;;;;6.60;4.80;;;12.60;98.50;;;;;;4993844;28;97554;-76
2023/05/05 03:55:49;;;;;;;5.57;4.78;;;12.60;98.60;;;;;;4977962;28;92551;-76
2023/05/05 03:58:16;;;;;;;6.88;4.90;;;12.50;98.60;;;;;;4994278;28;92490;-76
2023/05/05 04:00:43;;;;;;;6.63;4.95;;;12.60;98.70;;;;;;4994012;28;95596;-76
2023/05/05 04:03:11;;;;;;;6.88;5.90;;;12.50;98.80;;;;;;4977608;28;95409;-76
2023/05/05 04:05:38;;;;;;;6.45;5.55;;;12.50;98.80;;;;;;4994139;28;92604;-76
2023/05/05 04:08:05;;;;;;;9.40;5.35;;;12.50;98.90;;;;;;4994451;28;91863;-76
2023/05/05 04:10:32;;;;;;;7.22;5.25;;;12.50;98.90;;;;;;4961011;28;95580;-76
2023/05/05 04:13:00;;;;;;;7.88;4.80;;;12.60;98.90;;;;;;4994000;28;95015;-76
2023/05/05 04:15:29;;;;;;;5.68;5.18;;;12.60;98.80;;;;;;4992590;28;94900;-76
2023/05/05 04:17:56;;;;;;;5.70;5.20;;;12.70;98.70;;;;;;4993590;28;92963;-76
2023/05/05 04:20:24;;;;;;;6.57;5.15;;;12.80;98.50;;;;;;4977407;28;95614;-76
2023/05/05 04:22:51;;;;;;;7.25;4.65;;;12.90;98.40;;;;;;4993708;28;95544;-76
2023/05/05 04:25:19;;;;;;;8.85;5.20;;;13.10;98.40;;;;;;4993727;28;92505;-76
2023/05/05 04:27:48;;;;;;;6.40;4.97;;;13.20;98.10;;;;;;4993842;28;92565;-76
2023/05/05 04:30:14;;;;;;;6.05;4.82;;;13.40;98.10;;;;;;4993478;28;95973;-76
2023/05/05 04:32:41;;;;;;;7.30;5.30;;;13.40;98.10;;;;;;4993688;28;95425;-76
2023/05/05 04:35:09;;;;;;;5.88;4.75;;;13.60;98.00;;;;;;4993899;28;92851;-76
2023/05/05 04:37:36;;;;;;;7.47;4.93;;;13.80;97.90;;;;;;4993488;28;92456;-76
2023/05/05 04:40:04;;;;;;;5.88;4.82;;;14.00;97.70;;;;;;4992532;28;98118;-76
2023/05/05 04:42:32;;;;;;;6.90;5.47;;;14.10;97.60;;;;;;4977249;28;96352;-76
2023/05/05 04:45:00;;;;;;;14.70;6.60;;;14.10;98.20;;;;;;4977627;28;93044;-76
2023/05/05 04:47:28;;;;;;;12.00;7.97;;;14.10;99.90;;;;;;4977416;28;92551;-76
2023/05/05 04:49:55;;;;;;;12.50;7.78;;;13.70;99.90;;;;;;4993599;28;96002;-76
2023/05/05 04:52:22;;;;;;;10.02;7.15;;;13.20;99.90;;;;;;4977074;28;95546;-76
2023/05/05 04:54:50;;;;;;;9.40;8.50;;;12.80;99.90;;;;;;4993710;28;92541;-76
2023/05/05 04:57:17;;;;;;;7.95;7.15;;;12.60;99.90;;;;;;4994026;28;91969;-76
2023/05/05 04:59:44;;;;;;;10.60;7.20;;;12.50;99.90;;;;;;4976894;28;96276;-76
2023/05/05 05:02:11;;;;;;;9.45;6.88;;;12.40;99.90;;;;;;4979922;28;95435;-76
2023/05/05 05:04:38;;;;;;;9.60;7.78;;;12.40;99.90;;;;;;4995698;28;95857;-76
2023/05/05 05:07:05;;;;;;;11.35;7.10;;;12.20;99.90;;;;;;4980634;28;92507;-76
2023/05/05 05:09:32;;;;;;;8.55;7.63;;;12.10;99.90;;;;;;4996668;28;95877;-77
2023/05/05 05:12:01;;;;;;;9.30;7.63;;;12.00;99.90;;;;;;4980084;28;95558;-76
2023/05/05 05:14:29;;;;;;;8.75;7.20;;;11.90;99.90;;;;;;4996442;28;93908;-76
2023/05/05 05:16:55;;;;;;;11.63;7.10;;;11.80;99.90;;;;;;4996365;28;92574;-76
2023/05/05 05:19:23;;;;;;;11.52;7.57;;;11.80;99.90;;;;;;4996698;28;95417;-76
2023/05/05 05:21:50;;;;;;;12.27;7.22;;;11.80;99.90;;;;;;4998235;28;93144;-76
2023/05/05 05:24:17;;;;;;;9.38;7.40;;;11.80;99.90;;;;;;4980245;28;92554;-76
2023/05/05 05:26:44;;;;;;;8.80;8.00;;;11.80;99.90;;;;;;4979999;28;92497;-76
2023/05/05 05:29:11;;;;;;;8.77;7.07;;;11.80;99.90;;;;;;4978584;28;98461;-76
2023/05/05 05:31:38;;;;;;;9.95;8.40;;;11.80;99.90;;;;;;4979721;28;97876;-76
2023/05/05 05:34:06;;;;;;;13.68;7.72;;;11.80;99.90;;;;;;4996618;28;92398;-76
2023/05/05 05:36:33;;;;;;;7.90;7.20;;;11.80;99.90;;;;;;4979869;28;92636;-76
2023/05/05 05:39:00;;;;;;;9.13;7.72;;;11.80;99.90;;;;;;4979695;28;95834;-76
2023/05/05 05:41:27;;;;;;;8.90;7.13;;;11.80;99.90;;;;;;4996316;28;95587;-76
2023/05/05 05:43:55;;;;;;;9.68;7.18;;;11.90;99.90;;;;;;4980085;28;92402;-76
2023/05/05 05:46:22;;;;;;;12.00;7.53;;;11.90;99.90;;;;;;4996718;28;91850;-76
2023/05/05 05:48:49;;;;;;;8.30;7.43;;;12.00;99.90;;;;;;4995989;28;95856;-76
2023/05/05 05:51:16;;;;;;;8.27;7.32;;;12.00;99.90;;;;;;4996023;28;95045;-76
2023/05/05 05:53:44;;;;;;;13.00;7.82;;;12.10;99.90;;;;;;4978309;28;94947;-76
2023/05/05 05:56:11;;;;;;;8.35;7.10;;;12.10;99.90;;;;;;4997534;28;92453;-76
2023/05/05 05:58:38;;;;;;;8.15;7.18;;;12.20;99.90;;;;;;4979293;28;95760;-76
2023/05/05 06:01:05;;;;;;;7.72;6.80;;;12.30;99.90;;;;;;4979461;28;95244;-76
2023/05/05 06:03:32;;;;;;;11.15;7.13;;;12.40;99.90;;;;;;4996004;28;92416;-76
2023/05/05 06:06:00;;;;;;;8.90;7.50;;;12.60;99.90;;;;;;4996012;28;92967;-76
2023/05/05 06:08:27;;;;;;;7.55;6.78;;;12.80;99.90;;;;;;4979555;28;95422;-76
2023/05/05 06:10:56;;;;;;;8.73;7.07;;;12.90;99.90;;;;;;4979508;28;95287;-76
2023/05/05 06:13:23;;;;;;;11.38;8.27;;;13.10;99.90;;;;;;4979481;28;92448;-76
2023/05/05 06:15:51;;;;;;;10.57;8.32;;;13.30;99.90;;;;;;4995221;28;92409;-76
2023/05/05 06:18:18;;;;;;;11.05;8.18;;;13.40;99.90;;;;;;4977974;28;98234;-76
2023/05/05 06:20:48;;;;;;;9.90;7.55;;;13.60;99.90;;;;;;4995389;28;95723;-76
2023/05/05 06:23:16;;;;;;;10.75;8.15;;;13.60;99.90;;;;;;4995815;28;92518;-76
2023/05/05 06:25:49;;;;;;;10.48;7.97;;;13.60;99.90;;;;;;4995503;28;92491;-76
2023/05/05 06:28:17;;;;;;;9.45;6.93;;;13.70;99.90;;;;;;4995799;28;93502;-76
2023/05/05 06:30:44;;;;;;;11.30;8.10;;;13.70;99.90;;;;;;4978902;28;95738;-76
2023/05/05 06:33:11;;;;;;;12.38;8.38;;;13.70;99.90;;;;;;4997042;28;92417;-76
2023/05/05 06:35:38;;;;;;;7.82;7.03;;;13.70;99.90;;;;;;4997087;28;91735;-76
2023/05/05 06:38:05;;;;;;;9.68;7.82;;;13.70;99.90;;;;;;4995649;28;92412;-76
2023/05/05 06:40:32;;;;;;;11.30;8.15;;;13.70;99.90;;;;;;4995188;28;95676;-76
2023/05/05 06:42:59;;;;;;;9.25;7.60;;;13.80;99.90;;;;;;4995451;28;94841;-76
2023/05/05 06:45:32;;;;;;;8.57;7.55;;;13.80;99.90;;;;;;4995263;28;93261;-76
2023/05/05 06:47:59;;;;;;;9.20;7.97;;;13.80;99.90;;;;;;4994986;28;96109;-76
2023/05/05 06:50:26;;;;;;;10.15;7.85;;;13.90;99.90;;;;;;4995142;28;95689;-76
2023/05/05 06:52:53;;;;;;;12.50;7.88;;;14.10;99.90;;;;;;4994516;28;103929;-76
2023/05/05 06:55:20;;;;;;;12.82;8.05;;;14.10;99.90;;;;;;4978598;28;92579;-76
2023/05/05 06:57:47;;;;;;;10.90;7.32;;;14.30;99.90;;;;;;4978676;28;93094;-76
2023/05/05 07:00:16;;;;;;;9.18;8.07;;;14.50;99.90;;;;;;4995070;28;94561;-76
2023/05/05 07:02:43;;;;;;;8.63;7.63;;;14.70;99.90;;;;;;4994983;28;92575;-76
2023/05/05 07:05:10;;;;;;;8.45;7.47;;;14.80;99.90;;;;;;4996422;28;92490;-76
2023/05/05 07:07:37;;;;;;;8.30;7.47;;;14.90;99.90;;;;;;4977221;28;96619;-76
2023/05/05 07:10:05;;;;;;;11.10;8.02;;;15.00;99.90;;;;;;4996071;28;95374;-76
2023/05/05 07:12:32;;;;;;;9.68;7.82;;;15.10;99.90;;;;;;4995368;28;92618;-76
2023/05/05 07:14:59;;;;;;;9.38;7.57;;;15.20;99.90;;;;;;4995878;28;92479;-76
2023/05/05 07:17:30;;;;;;;10.18;8.25;;;15.30;99.90;;;;;;4994217;28;95947;-76
2023/05/05 07:19:57;;;;;;;10.98;8.65;;;15.30;99.90;;;;;;4994709;28;96013;-76
2023/05/05 07:22:24;;;;;;;10.00;8.60;;;15.30;99.90;;;;;;4995263;28;92391;-76
2023/05/05 07:24:52;;;;;;;9.52;8.57;;;15.30;99.90;;;;;;4993988;28;96202;-76
2023/05/05 07:27:22;;;;;;;8.85;7.95;;;15.40;99.90;;;;;;4994882;28;93597;-76
2023/05/05 07:29:49;;;;;;;9.98;8.43;;;15.50;99.90;;;;;;4994372;28;95411;-76
2023/05/05 07:32:16;;;;;;;12.27;8.48;;;15.50;99.90;;;;;;4977417;28;95382;-76
2023/05/05 07:34:43;;;;;;;10.15;8.50;;;15.60;99.90;;;;;;4994818;28;92553;-76
2023/05/05 07:37:10;;;;;;;10.77;8.05;;;15.70;99.90;;;;;;4995456;28;93119;-76
2023/05/05 07:39:37;;;;;;;13.48;8.52;;;15.80;99.90;;;;;;4994756;28;92972;-76
2023/05/05 07:42:05;;;;;;;11.20;9.10;;;15.90;99.90;;;;;;4994304;28;92977;-76
2023/05/05 07:44:32;;;;;;;9.65;8.20;;;16.00;99.90;;;;;;4978195;28;97670;-76
2023/05/05 07:46:59;;;;;;;10.10;9.02;;;16.10;99.90;;;;;;4994348;28;93450;-76
2023/05/05 07:49:26;;;;;;;10.18;8.18;;;16.50;99.90;;;;;;4996140;28;92965;-76
2023/05/05 07:51:54;;;;;;;8.38;7.18;;;17.00;99.90;;;;;;4994382;28;92476;-76
2023/05/05 07:54:21;;;;;;;9.70;8.25;;;17.60;99.90;;;;;;4995830;28;92430;-76
2023/05/05 07:56:48;;;;;;;8.90;7.45;;;18.50;99.90;;;;;;4994209;28;95559;-76
2023/05/05 07:59:15;;;;;;;9.10;8.18;;;19.20;99.80;;;;;;4994320;28;95365;-77
2023/05/05 08:01:42;;;;;;;8.07;7.38;;;20.00;98.60;;;;;;4995603;28;92454;-77
2023/05/05 08:04:08;;;;;;;9.10;7.68;;;21.00;97.90;;;;;;4994150;28;92410;-76
2023/05/05 08:06:35;;;;;;;8.20;7.32;;;21.80;96.00;;;;;;4993954;28;94151;-77
2023/05/05 08:09:02;;;;;;;7.05;6.40;;;22.50;94.70;;;;;;4995231;28;93075;-76
2023/05/05 08:11:29;;;;;;;10.70;6.90;;;23.10;93.50;;;;;;4995683;28;92414;-77
2023/05/05 08:13:57;;;;;;;7.68;6.88;;;23.80;92.50;;;;;;4994574;28;91806;-77
2023/05/05 08:16:24;;;;;;;9.90;7.63;;;24.50;91.40;;;;;;4993312;28;93152;-77
2023/05/05 08:18:51;;;;;;;7.88;6.88;;;25.20;89.60;;;;;;4995623;28;93112;-77
2023/05/05 08:21:18;;;;;;;8.20;7.40;;;25.70;87.10;;;;;;4994439;28;94844;-77
2023/05/05 08:23:45;;;;;;;8.48;7.70;;;26.20;84.90;;;;;;4995407;28;92447;-77
2023/05/05 08:26:12;;;;;;;9.35;6.93;;;26.80;81.70;;;;;;4995047;28;93320;-77
2023/05/05 08:28:39;;;;;;;8.27;7.57;;;27.10;80.50;;;;;;4994065;28;92423;-77
2023/05/05 08:31:06;;;;;;;10.02;7.50;;;27.20;79.20;;;;;;4977363;28;92392;-77
2023/05/05 08:33:33;;;;;;;7.97;7.28;;;27.60;78.00;;;;;;4995365;28;92434;-77
2023/05/05 08:36:00;;;;;;;8.93;8.02;;;27.70;76.20;;;;;;4996011;28;93317;-77
2023/05/05 08:38:27;;;;;;;8.48;7.45;;;27.80;75.40;;;;;;4981418;28;92912;-77
2023/05/05 08:40:54;;;;;;;8.13;7.43;;;27.80;75.20;;;;;;4981341;28;92500;-77
2023/05/05 08:43:22;;;;;;;8.43;7.60;;;27.80;74.90;;;;;;4997293;28;92512;-77
2023/05/05 08:45:55;;;;;;;8.55;7.75;;;27.90;74.50;;;;;;4997170;28;95668;-77
2023/05/05 08:48:22;;;;;;;;;;;27.70;72.70;;;;;;4997484;28;95217;-77
2023/05/05 08:50:56;;;;;;;11.50;8.40;;;26.70;73.30;;;;;;4998327;28;92532;-77
2023/05/05 08:53:40;;;;;;;10.10;9.15;;;26.60;75.00;;;;;;4997059;28;92615;-77
2023/05/05 08:56:31;;;;;;;9.27;8.43;;;27.00;74.30;;;;;;4997079;28;93165;-77
2023/05/05 08:59:00;;;;;;;10.43;9.43;;;26.70;74.90;;;;;;4997938;28;93793;-77
2023/05/05 09:01:32;;;;;;;11.38;10.20;;;26.20;76.00;;;;;;4998520;28;92342;-77
2023/05/05 09:03:59;;;;;;;10.95;9.82;;;25.90;76.60;;;;;;4998287;28;92265;-77
2023/05/05 09:06:27;;;;;;;12.88;10.45;;;25.40;77.60;;;;;;4980594;28;93278;-77
2023/05/05 09:08:54;;;;;;;11.23;10.10;;;24.90;78.20;;;;;;4996360;28;93026;-77
2023/05/05 09:11:24;;;;;;;12.55;10.98;;;24.40;79.80;;;;;;4996197;28;94968;-77
2023/05/05 09:13:51;;;;;;;11.80;10.75;;;23.90;80.60;;;;;;4979743;28;92426;-77
2023/05/05 09:16:18;;;;;;;11.68;10.65;;;23.60;81.50;;;;;;4996950;28;93143;-77
2023/05/05 09:18:45;;;;;;;13.35;12.13;;;23.30;83.20;;;;;;4995157;28;95570;-77
2023/05/05 09:21:23;;;;;;;12.82;11.40;;;22.90;84.00;;;;;;4997299;28;92439;-77
2023/05/05 09:24:17;;;;;;;12.23;11.15;;;22.40;87.00;;;;;;4997979;28;92819;-77
2023/05/05 09:26:45;;;;;;;;;;;22.20;88.00;;;;;;4961522;28;96096;-77
2023/05/05 09:29:19;;;;;;;12.93;11.55;;;21.50;90.10;;;;;;4998063;28;92509;-77
2023/05/05 09:32:07;;;;;;;13.55;12.35;;;21.40;90.70;;;;;;4996625;28;92470;-77
2023/05/05 09:34:34;;;;;;;14.65;13.25;;;21.20;91.10;;;;;;4997375;28;92499;-77
2023/05/05 09:37:02;;;;;;;14.30;12.88;;;21.20;91.40;;;;;;4994550;28;95509;-77
2023/05/05 09:39:30;;;;;;;14.70;13.20;;;21.10;91.80;;;;;;4996974;28;96597;-76
2023/05/05 09:41:57;;;;;;;16.00;12.82;;;21.10;92.00;;;;;;4995936;28;92437;-76
2023/05/05 09:44:35;;;;;;;15.00;13.65;;;21.10;92.30;;;;;;4995847;28;92440;-77
2023/05/05 09:47:02;;;;;;;15.23;13.50;;;21.00;92.60;;;;;;4996408;28;93459;-76
2023/05/05 09:49:37;;;;;;;14.15;12.85;;;20.80;93.30;;;;;;4997292;28;93417;-76
2023/05/05 09:52:16;;;;;;;15.77;14.20;;;20.80;93.70;;;;;;4979275;28;93118;-77
2023/05/05 09:54:43;;;;;;;16.05;14.10;;;21.00;93.80;;;;;;4996064;28;92170;-77
2023/05/05 09:57:26;;;;;;;16.70;14.88;;;21.00;93.90;;;;;;4996753;28;94832;-76
2023/05/05 09:59:58;;;;;;;16.77;15.37;;;21.20;93.90;;;;;;4995679;28;93154;-76
2023/05/05 10:02:37;;;;;;;16.00;14.30;;;21.20;94.00;;;;;;4994086;28;94935;-77
2023/05/05 10:05:06;;;;;;;14.45;13.18;;;21.30;94.60;;;;;;4995496;28;92521;-77
2023/05/05 10:07:34;;;;;;;15.18;13.60;;;21.40;94.30;;;;;;4996544;28;93672;-76
2023/05/05 10:10:07;;;;;;;16.33;14.25;;;21.60;94.50;;;;;;4995144;28;93071;-77
2023/05/05 10:12:37;;;;;;;15.63;14.10;;;21.90;94.50;;;;;;4995363;28;92439;-77
2023/05/05 10:15:06;;;;;;;15.05;13.55;;;22.20;94.20;;;;;;4995273;28;92564;-77
2023/05/05 10:17:44;;;;;;;14.60;13.20;;;22.50;93.90;;;;;;4994198;28;101564;-77
2023/05/05 10:20:25;;;;;;;13.90;12.52;;;22.80;93.40;;;;;;4996464;28;93200;-76
2023/05/05 10:22:54;;;;;;;12.82;11.63;;;23.00;93.30;;;;;;4995191;28;92642;-76
2023/05/05 10:25:48;;;;;;;15.55;13.93;;;23.20;93.00;;;;;;4996305;28;92478;-76
2023/05/05 10:28:20;;;;;;;;;;;23.50;92.70;;;;;;4987919;28;98404;-77
2023/05/05 10:30:52;;;;;;;14.60;13.30;;;23.30;92.50;;;;;;4996871;28;94909;-77
2023/05/05 10:33:25;;;;;;;14.70;13.32;;;23.50;92.30;;;;;;4996691;28;92490;-77
2023/05/05 10:36:01;;;;;;;14.95;13.55;;;23.80;92.50;;;;;;4996751;28;92581;-77
2023/05/05 10:38:30;;;;;;;15.73;13.90;;;24.10;91.70;;;;;;4996253;28;93184;-77
2023/05/05 10:40:59;;;;;;;15.05;13.60;;;24.40;91.50;;;;;;4977706;28;109812;-76
2023/05/05 10:43:27;;;;;;;14.52;12.82;;;24.70;91.50;;;;;;4995985;28;92461;-77
2023/05/05 10:45:55;;;;;;;14.90;13.60;;;25.10;91.30;;;;;;4995111;28;91771;-77
2023/05/05 10:48:45;;;;;;;15.35;13.82;;;25.40;90.80;;;;;;4995795;28;93390;-76
2023/05/05 10:51:31;;;;;;;14.30;13.00;;;25.60;89.30;;;;;;4994978;28;92794;-77
2023/05/05 10:54:09;;;;;;;16.05;14.55;;;25.70;89.80;;;;;;4994005;28;94867;-77
2023/05/05 10:56:40;;;;;;;15.30;13.90;;;25.70;89.90;;;;;;4994508;28;92626;-77
2023/05/05 10:59:36;;;;;;;14.57;13.07;;;25.80;89.40;;;;;;4994943;28;93405;-77
2023/05/05 11:02:22;;;;;;;15.93;14.32;;;25.80;88.30;;;;;;4994009;28;100198;-77
2023/05/05 11:05:22;;;;;;;14.93;13.55;;;25.80;88.60;;;;;;4994428;28;92543;-77
2023/05/05 11:07:50;;;;;;;15.30;13.90;;;25.70;88.30;;;;;;4994498;28;92523;-77
2023/05/05 11:10:19;;;;;;;15.70;14.20;;;25.50;89.20;;;;;;4995387;28;93189;-77
2023/05/05 11:13:00;;;;;;;15.45;13.95;;;25.40;89.20;;;;;;4995988;28;94505;-76
2023/05/05 11:15:30;;;;;;;16.05;14.45;;;25.40;89.20;;;;;;4994076;28;92428;-77
2023/05/05 11:18:01;;;;;;;15.40;13.82;;;25.30;89.60;;;;;;4995324;28;92443;-77
2023/05/05 11:20:34;;;;;;;15.65;14.02;;;25.20;90.00;;;;;;4992818;28;98221;-77
2023/05/05 11:23:01;;;;;;;15.48;13.98;;;25.30;90.10;;;;;;4995582;28;95960;-77
2023/05/05 11:25:35;;;;;;;14.40;13.10;;;25.20;89.10;;;;;;4995602;28;92429;-77
2023/05/05 11:28:08;;;;;;;15.98;14.38;;;25.20;89.80;;;;;;4995794;28;92546;-77
2023/05/05 11:30:55;;;;;;;14.55;13.27;;;25.20;89.30;;;;;;4993998;28;93276;-77
2023/05/05 11:33:34;;;;;;;15.85;14.18;;;25.10;89.50;;;;;;4993471;28;95620;-77
2023/05/05 11:36:08;;;;;;;12.15;10.95;;;25.10;89.90;;;;;;4994213;28;92466;-77
2023/05/05 11:38:44;;;;;;;11.27;10.13;;;25.00;90.00;;;;;;4995795;28;91675;-77
2023/05/05 11:41:29;;;;;;;10.70;9.80;;;25.00;89.10;;;;;;4995266;28;93362;-77
2023/05/05 11:44:15;;;;;;;10.30;9.23;;;25.30;87.50;;;;;;4995954;28;92873;-77
2023/05/05 11:46:51;;;;;;;9.93;9.07;;;25.20;87.50;;;;;;4993615;28;94976;-77
2023/05/05 11:49:31;;;;;;;7.13;6.43;;;25.20;87.80;;;;;;4994528;28;92492;-77
2023/05/05 11:52:02;;;;;;;5.75;5.20;;;25.10;85.60;;;;;;4995463;28;93354;-76
2023/05/05 11:54:30;;;;;;;5.70;5.07;;;25.10;86.10;;;;;;4995631;28;92951;-77
2023/05/05 11:57:08;;;;;;;6.20;5.60;;;25.40;84.70;;;;;;4994305;28;94655;-77
2023/05/05 11:59:49;;;;;;;5.68;4.95;;;25.50;84.00;;;;;;4994408;28;92469;-77
2023/05/05 12:02:19;;;;;;;5.38;4.88;;;25.90;83.30;;;;;;4994208;28;96004;-77
2023/05/05 12:04:47;;;;;;;6.45;5.85;;;25.90;82.90;;;;;;4995938;28;93029;-77
2023/05/05 12:07:25;;;;;;;6.65;5.75;;;25.70;82.40;;;;;;4995722;28;92355;-77
2023/05/05 12:09:53;;;;;;;6.57;5.93;;;25.50;82.40;;;;;;4993777;28;92339;-77
2023/05/05 12:12:33;;;;;;;5.90;5.40;;;25.50;83.60;;;;;;4994066;28;95509;-77
2023/05/05 12:15:00;;;;;;;6.32;5.80;;;25.50;83.40;;;;;;4995265;28;95600;-77
2023/05/05 12:17:38;;;;;;;6.70;6.00;;;25.50;83.10;;;;;;4993612;28;92471;-77
2023/05/05 12:20:07;;;;;;;7.15;6.45;;;25.60;82.80;;;;;;4977602;28;92760;-77
2023/05/05 12:22:34;;;;;;;7.80;7.00;;;25.40;84.00;;;;;;4995030;28;93264;-77
2023/05/05 12:25:05;;;;;;;10.18;8.10;;;25.20;85.10;;;;;;4994063;28;95841;-77
2023/05/05 12:27:32;;;;;;;8.35;7.50;;;25.00;84.50;;;;;;4995079;28;92959;-77
2023/05/05 12:30:14;;;;;;;8.40;7.55;;;24.90;84.90;;;;;;4994556;28;91751;-77
2023/05/05 12:32:42;;;;;;;7.63;6.80;;;24.80;85.50;;;;;;4993912;28;93344;-77
2023/05/05 12:35:10;;;;;;;9.38;8.40;;;24.50;86.50;;;;;;4995001;28;98164;-77
2023/05/05 12:37:37;;;;;;;8.13;7.40;;;24.30;86.70;;;;;;4993827;28;94870;-77
2023/05/05 12:40:05;;;;;;;9.20;7.95;;;24.00;87.30;;;;;;4995039;28;92431;-77
2023/05/05 12:42:37;;;;;;;8.90;8.00;;;23.80;88.20;;;;;;4977124;28;96940;-77
2023/05/05 12:45:05;;;;;;;10.98;8.68;;;23.70;89.00;;;;;;4995198;28;93028;-77
2023/05/05 12:47:33;;;;;;;8.63;7.45;;;23.50;89.40;;;;;;4977316;28;92686;-77
2023/05/05 12:50:02;;;;;;;10.07;9.07;;;23.20;89.30;;;;;;4993742;28;92391;-77
2023/05/05 12:52:43;;;;;;;16.77;15.05;;;23.00;90.40;;;;;;4977028;28;95992;-77
2023/05/05 12:55:11;;;;;;;19.10;17.02;;;22.80;92.00;;;;;;4993404;28;95832;-77
2023/05/05 12:57:57;;;;;;;22.17;18.35;;;22.50;93.30;;;;;;4994218;28;92473;-76
2023/05/05 13:00:24;;;;;;;19.65;17.63;;;22.20;94.70;;;;;;4994650;28;92388;-77
2023/05/05 13:02:51;;;;;;;23.38;15.40;;;21.80;95.80;;;;;;4992578;28;95751;-77